sensor_id;sensor_type;location;lat;lon;timestamp;P1;durP1;ratioP1;P2;durP2;ratioP2
43998;SDS011;51319;52.162;5.302;2024-02-14T00:00:44;12.32;;;8.43;;
43998;SDS011;51319;52.162;5.302;2024-02-14T00:03:11;12.30;;;8.82;;
43998;SDS011;51319;52.162;5.302;2024-02-14T00:05:38;13.68;;;9.52;;
43998;SDS011;51319;52.162;5.302;2024-02-14T00:08:08;14.15;;;9.50;;
43998;SDS011;51319;52.162;5.302;2024-02-14T00:10:35;9.98;;;8.07;;
43998;SDS011;51319;52.162;5.302;2024-02-14T00:13:02;10.65;;;8.57;;
43998;SDS011;51319;52.162;5.302;2024-02-14T00:15:30;12.70;;;10.30;;
43998;SDS011;51319;52.162;5.302;2024-02-14T00:17:57;12.80;;;9.75;;
43998;SDS011;51319;52.162;5.302;2024-02-14T00:20:24;15.02;;;9.60;;
43998;SDS011;51319;52.162;5.302;2024-02-14T00:22:52;14.90;;;10.85;;
43998;SDS011;51319;52.162;5.302;2024-02-14T00:25:19;19.05;;;13.27;;
43998;SDS011;51319;52.162;5.302;2024-02-14T00:27:46;13.57;;;10.98;;
43998;SDS011;51319;52.162;5.302;2024-02-14T00:30:13;17.27;;;12.48;;
43998;SDS011;51319;52.162;5.302;2024-02-14T00:32:40;16.15;;;10.70;;
43998;SDS011;51319;52.162;5.302;2024-02-14T00:35:08;19.70;;;12.52;;
43998;SDS011;51319;52.162;5.302;2024-02-14T00:37:35;20.70;;;13.98;;
43998;SDS011;51319;52.162;5.302;2024-02-14T00:40:02;21.92;;;15.18;;
43998;SDS011;51319;52.162;5.302;2024-02-14T00:42:30;18.98;;;13.60;;
43998;SDS011;51319;52.162;5.302;2024-02-14T00:44:57;19.10;;;14.98;;
43998;SDS011;51319;52.162;5.302;2024-02-14T00:47:24;26.42;;;14.90;;
43998;SDS011;51319;52.162;5.302;2024-02-14T00:49:51;20.63;;;15.70;;
43998;SDS011;51319;52.162;5.302;2024-02-14T00:52:18;20.70;;;15.02;;
43998;SDS011;51319;52.162;5.302;2024-02-14T00:54:48;25.77;;;16.00;;
43998;SDS011;51319;52.162;5.302;2024-02-14T00:57:15;21.77;;;16.52;;
43998;SDS011;51319;52.162;5.302;2024-02-14T00:59:43;20.90;;;16.23;;
43998;SDS011;51319;52.162;5.302;2024-02-14T01:02:10;28.63;;;18.45;;
43998;SDS011;51319;52.162;5.302;2024-02-14T01:04:37;29.80;;;19.45;;
43998;SDS011;51319;52.162;5.302;2024-02-14T01:07:04;28.83;;;20.00;;
43998;SDS011;51319;52.162;5.302;2024-02-14T01:09:31;26.63;;;18.88;;
43998;SDS011;51319;52.162;5.302;2024-02-14T01:11:58;32.72;;;19.70;;
43998;SDS011;51319;52.162;5.302;2024-02-14T01:14:26;33.17;;;22.17;;
43998;SDS011;51319;52.162;5.302;2024-02-14T01:16:53;32.38;;;20.95;;
43998;SDS011;51319;52.162;5.302;2024-02-14T01:19:20;29.85;;;18.10;;
43998;SDS011;51319;52.162;5.302;2024-02-14T01:21:50;37.25;;;21.70;;
43998;SDS011;51319;52.162;5.302;2024-02-14T01:24:17;31.05;;;21.27;;
43998;SDS011;51319;52.162;5.302;2024-02-14T01:26:44;35.95;;;23.30;;
43998;SDS011;51319;52.162;5.302;2024-02-14T01:29:12;33.75;;;23.67;;
43998;SDS011;51319;52.162;5.302;2024-02-14T01:31:39;37.53;;;23.17;;
43998;SDS011;51319;52.162;5.302;2024-02-14T01:34:06;27.88;;;22.35;;
43998;SDS011;51319;52.162;5.302;2024-02-14T01:36:37;32.30;;;22.65;;
43998;SDS011;51319;52.162;5.302;2024-02-14T01:39:05;24.90;;;17.42;;
43998;SDS011;51319;52.162;5.302;2024-02-14T01:41:46;31.98;;;21.25;;
43998;SDS011;51319;52.162;5.302;2024-02-14T01:44:15;30.35;;;21.85;;
43998;SDS011;51319;52.162;5.302;2024-02-14T01:46:43;27.45;;;18.77;;
43998;SDS011;51319;52.162;5.302;2024-02-14T01:49:11;30.10;;;20.83;;
43998;SDS011;51319;52.162;5.302;2024-02-14T01:51:39;26.17;;;16.42;;
43998;SDS011;51319;52.162;5.302;2024-02-14T01:54:11;34.22;;;21.13;;
43998;SDS011;51319;52.162;5.302;2024-02-14T01:56:42;22.70;;;14.80;;
43998;SDS011;51319;52.162;5.302;2024-02-14T01:59:10;29.27;;;21.02;;
43998;SDS011;51319;52.162;5.302;2024-02-14T02:01:37;30.45;;;22.08;;
43998;SDS011;51319;52.162;5.302;2024-02-14T02:04:04;35.53;;;23.52;;
43998;SDS011;51319;52.162;5.302;2024-02-14T02:06:32;34.47;;;22.45;;
43998;SDS011;51319;52.162;5.302;2024-02-14T02:08:59;37.15;;;23.63;;
43998;SDS011;51319;52.162;5.302;2024-02-14T02:11:27;31.48;;;21.48;;
43998;SDS011;51319;52.162;5.302;2024-02-14T02:13:55;35.25;;;23.27;;
43998;SDS011;51319;52.162;5.302;2024-02-14T02:16:22;30.83;;;21.55;;
43998;SDS011;51319;52.162;5.302;2024-02-14T02:18:49;31.35;;;21.08;;
43998;SDS011;51319;52.162;5.302;2024-02-14T02:21:16;31.73;;;19.17;;
43998;SDS011;51319;52.162;5.302;2024-02-14T02:23:46;29.92;;;20.08;;
43998;SDS011;51319;52.162;5.302;2024-02-14T02:26:14;30.80;;;22.42;;
43998;SDS011;51319;52.162;5.302;2024-02-14T02:28:41;28.17;;;20.00;;
43998;SDS011;51319;52.162;5.302;2024-02-14T02:31:09;28.30;;;17.08;;
43998;SDS011;51319;52.162;5.302;2024-02-14T02:33:37;35.30;;;20.25;;
43998;SDS011;51319;52.162;5.302;2024-02-14T02:36:04;32.58;;;21.38;;
43998;SDS011;51319;52.162;5.302;2024-02-14T02:38:33;33.00;;;21.52;;
43998;SDS011;51319;52.162;5.302;2024-02-14T02:41:01;31.42;;;19.13;;
43998;SDS011;51319;52.162;5.302;2024-02-14T02:43:28;36.42;;;22.17;;
43998;SDS011;51319;52.162;5.302;2024-02-14T02:45:56;27.40;;;18.58;;
43998;SDS011;51319;52.162;5.302;2024-02-14T02:48:24;30.10;;;19.20;;
43998;SDS011;51319;52.162;5.302;2024-02-14T02:50:51;31.23;;;19.65;;
43998;SDS011;51319;52.162;5.302;2024-02-14T02:53:19;26.17;;;18.98;;
43998;SDS011;51319;52.162;5.302;2024-02-14T02:55:46;31.30;;;19.40;;
43998;SDS011;51319;52.162;5.302;2024-02-14T02:58:13;21.40;;;14.05;;
43998;SDS011;51319;52.162;5.302;2024-02-14T03:00:41;30.40;;;20.10;;
43998;SDS011;51319;52.162;5.302;2024-02-14T03:03:08;20.23;;;13.65;;
43998;SDS011;51319;52.162;5.302;2024-02-14T03:05:35;35.88;;;19.27;;
43998;SDS011;51319;52.162;5.302;2024-02-14T03:08:03;25.67;;;17.95;;
43998;SDS011;51319;52.162;5.302;2024-02-14T03:10:31;25.30;;;15.45;;
43998;SDS011;51319;52.162;5.302;2024-02-14T03:12:58;23.20;;;16.02;;
43998;SDS011;51319;52.162;5.302;2024-02-14T03:15:25;29.23;;;16.08;;
43998;SDS011;51319;52.162;5.302;2024-02-14T03:17:52;22.63;;;15.38;;
43998;SDS011;51319;52.162;5.302;2024-02-14T03:20:19;28.85;;;15.52;;
43998;SDS011;51319;52.162;5.302;2024-02-14T03:22:46;35.35;;;21.38;;
43998;SDS011;51319;52.162;5.302;2024-02-14T03:25:18;31.52;;;18.50;;
43998;SDS011;51319;52.162;5.302;2024-02-14T03:27:46;33.88;;;21.25;;
43998;SDS011;51319;52.162;5.302;2024-02-14T03:30:16;36.33;;;20.90;;
43998;SDS011;51319;52.162;5.302;2024-02-14T03:32:44;38.30;;;23.02;;
43998;SDS011;51319;52.162;5.302;2024-02-14T03:35:15;38.83;;;23.25;;
43998;SDS011;51319;52.162;5.302;2024-02-14T03:37:42;46.55;;;23.83;;
43998;SDS011;51319;52.162;5.302;2024-02-14T03:40:14;40.70;;;23.65;;
43998;SDS011;51319;52.162;5.302;2024-02-14T03:42:41;43.00;;;23.77;;
43998;SDS011;51319;52.162;5.302;2024-02-14T03:45:08;41.90;;;23.75;;
43998;SDS011;51319;52.162;5.302;2024-02-14T03:47:36;37.95;;;21.48;;
43998;SDS011;51319;52.162;5.302;2024-02-14T03:50:07;32.05;;;18.73;;
43998;SDS011;51319;52.162;5.302;2024-02-14T03:52:35;44.33;;;23.75;;
43998;SDS011;51319;52.162;5.302;2024-02-14T03:55:03;42.83;;;21.65;;
43998;SDS011;51319;52.162;5.302;2024-02-14T03:57:31;29.95;;;17.30;;
43998;SDS011;51319;52.162;5.302;2024-02-14T04:00:02;38.20;;;19.77;;
43998;SDS011;51319;52.162;5.302;2024-02-14T04:02:30;46.60;;;23.40;;
43998;SDS011;51319;52.162;5.302;2024-02-14T04:04:58;47.08;;;24.15;;
43998;SDS011;51319;52.162;5.302;2024-02-14T04:07:26;45.55;;;25.77;;
43998;SDS011;51319;52.162;5.302;2024-02-14T04:09:53;54.72;;;27.35;;
43998;SDS011;51319;52.162;5.302;2024-02-14T04:12:20;62.53;;;29.67;;
43998;SDS011;51319;52.162;5.302;2024-02-14T04:14:47;63.67;;;28.05;;
43998;SDS011;51319;52.162;5.302;2024-02-14T04:17:15;71.00;;;28.75;;
43998;SDS011;51319;52.162;5.302;2024-02-14T04:19:42;61.13;;;29.35;;
43998;SDS011;51319;52.162;5.302;2024-02-14T04:22:09;63.80;;;29.55;;
43998;SDS011;51319;52.162;5.302;2024-02-14T04:24:36;65.82;;;26.83;;
43998;SDS011;51319;52.162;5.302;2024-02-14T04:27:04;68.68;;;27.05;;
43998;SDS011;51319;52.162;5.302;2024-02-14T04:29:32;64.55;;;29.38;;
43998;SDS011;51319;52.162;5.302;2024-02-14T04:32:00;61.95;;;30.85;;
43998;SDS011;51319;52.162;5.302;2024-02-14T04:34:28;47.05;;;21.67;;
43998;SDS011;51319;52.162;5.302;2024-02-14T04:36:57;55.17;;;26.27;;
43998;SDS011;51319;52.162;5.302;2024-02-14T04:39:24;66.50;;;27.98;;
43998;SDS011;51319;52.162;5.302;2024-02-14T04:41:51;70.00;;;28.15;;
43998;SDS011;51319;52.162;5.302;2024-02-14T04:44:28;48.85;;;19.25;;
43998;SDS011;51319;52.162;5.302;2024-02-14T04:46:59;56.15;;;24.08;;
43998;SDS011;51319;52.162;5.302;2024-02-14T04:49:27;37.22;;;15.77;;
43998;SDS011;51319;52.162;5.302;2024-02-14T04:51:57;64.53;;;24.90;;
43998;SDS011;51319;52.162;5.302;2024-02-14T04:54:25;68.32;;;27.45;;
43998;SDS011;51319;52.162;5.302;2024-02-14T04:56:53;67.03;;;28.95;;
43998;SDS011;51319;52.162;5.302;2024-02-14T04:59:24;72.15;;;27.95;;
43998;SDS011;51319;52.162;5.302;2024-02-14T05:01:52;61.40;;;26.63;;
43998;SDS011;51319;52.162;5.302;2024-02-14T05:04:20;58.88;;;25.67;;
43998;SDS011;51319;52.162;5.302;2024-02-14T05:06:48;79.22;;;27.67;;
43998;SDS011;51319;52.162;5.302;2024-02-14T05:09:18;63.15;;;26.95;;
43998;SDS011;51319;52.162;5.302;2024-02-14T05:11:45;69.80;;;28.95;;
43998;SDS011;51319;52.162;5.302;2024-02-14T05:14:12;68.20;;;26.48;;
43998;SDS011;51319;52.162;5.302;2024-02-14T05:16:39;67.25;;;26.58;;
43998;SDS011;51319;52.162;5.302;2024-02-14T05:19:07;67.05;;;27.80;;
43998;SDS011;51319;52.162;5.302;2024-02-14T05:21:34;69.55;;;30.80;;
43998;SDS011;51319;52.162;5.302;2024-02-14T05:24:01;61.90;;;26.13;;
43998;SDS011;51319;52.162;5.302;2024-02-14T05:26:28;62.55;;;27.65;;
43998;SDS011;51319;52.162;5.302;2024-02-14T05:28:56;55.47;;;24.42;;
43998;SDS011;51319;52.162;5.302;2024-02-14T05:31:23;59.30;;;26.60;;
43998;SDS011;51319;52.162;5.302;2024-02-14T05:33:50;72.60;;;25.88;;
43998;SDS011;51319;52.162;5.302;2024-02-14T05:36:17;72.30;;;27.55;;
43998;SDS011;51319;52.162;5.302;2024-02-14T05:38:44;65.00;;;26.83;;
43998;SDS011;51319;52.162;5.302;2024-02-14T05:41:11;52.47;;;27.70;;
43998;SDS011;51319;52.162;5.302;2024-02-14T05:43:38;49.40;;;24.80;;
43998;SDS011;51319;52.162;5.302;2024-02-14T05:46:06;47.30;;;23.23;;
43998;SDS011;51319;52.162;5.302;2024-02-14T05:48:35;58.75;;;23.80;;
43998;SDS011;51319;52.162;5.302;2024-02-14T05:51:07;42.17;;;22.75;;
43998;SDS011;51319;52.162;5.302;2024-02-14T05:53:34;47.08;;;22.80;;
43998;SDS011;51319;52.162;5.302;2024-02-14T05:56:01;32.60;;;15.50;;
43998;SDS011;51319;52.162;5.302;2024-02-14T05:58:28;40.03;;;19.65;;
43998;SDS011;51319;52.162;5.302;2024-02-14T06:00:55;46.70;;;21.02;;
43998;SDS011;51319;52.162;5.302;2024-02-14T06:03:22;41.38;;;18.65;;
43998;SDS011;51319;52.162;5.302;2024-02-14T06:05:50;44.72;;;20.30;;
43998;SDS011;51319;52.162;5.302;2024-02-14T06:08:17;39.45;;;20.00;;
43998;SDS011;51319;52.162;5.302;2024-02-14T06:10:44;41.88;;;20.40;;
43998;SDS011;51319;52.162;5.302;2024-02-14T06:13:11;43.50;;;20.73;;
43998;SDS011;51319;52.162;5.302;2024-02-14T06:15:38;41.72;;;20.98;;
43998;SDS011;51319;52.162;5.302;2024-02-14T06:18:05;42.42;;;22.00;;
43998;SDS011;51319;52.162;5.302;2024-02-14T06:20:32;42.05;;;20.70;;
43998;SDS011;51319;52.162;5.302;2024-02-14T06:22:59;52.83;;;24.83;;
43998;SDS011;51319;52.162;5.302;2024-02-14T06:25:31;45.10;;;22.83;;
43998;SDS011;51319;52.162;5.302;2024-02-14T06:27:59;47.53;;;21.42;;
43998;SDS011;51319;52.162;5.302;2024-02-14T06:30:26;44.40;;;22.92;;
43998;SDS011;51319;52.162;5.302;2024-02-14T06:32:58;41.67;;;20.40;;
43998;SDS011;51319;52.162;5.302;2024-02-14T06:35:28;42.65;;;19.48;;
43998;SDS011;51319;52.162;5.302;2024-02-14T06:37:56;39.10;;;20.25;;
43998;SDS011;51319;52.162;5.302;2024-02-14T06:40:30;43.60;;;21.13;;
43998;SDS011;51319;52.162;5.302;2024-02-14T06:42:57;38.65;;;19.85;;
43998;SDS011;51319;52.162;5.302;2024-02-14T06:45:27;39.33;;;20.40;;
43998;SDS011;51319;52.162;5.302;2024-02-14T06:47:54;42.63;;;22.20;;
43998;SDS011;51319;52.162;5.302;2024-02-14T06:50:22;43.38;;;22.17;;
43998;SDS011;51319;52.162;5.302;2024-02-14T06:52:52;49.40;;;25.35;;
43998;SDS011;51319;52.162;5.302;2024-02-14T06:55:19;50.65;;;23.35;;
43998;SDS011;51319;52.162;5.302;2024-02-14T06:57:46;55.47;;;27.95;;
43998;SDS011;51319;52.162;5.302;2024-02-14T07:00:13;61.72;;;28.70;;
43998;SDS011;51319;52.162;5.302;2024-02-14T07:02:40;61.65;;;27.02;;
43998;SDS011;51319;52.162;5.302;2024-02-14T07:05:12;66.28;;;30.13;;
43998;SDS011;51319;52.162;5.302;2024-02-14T07:07:41;79.05;;;37.70;;
43998;SDS011;51319;52.162;5.302;2024-02-14T07:10:08;68.70;;;31.33;;
43998;SDS011;51319;52.162;5.302;2024-02-14T07:12:35;71.88;;;33.50;;
43998;SDS011;51319;52.162;5.302;2024-02-14T07:15:03;71.78;;;29.77;;
43998;SDS011;51319;52.162;5.302;2024-02-14T07:17:31;66.50;;;30.17;;
43998;SDS011;51319;52.162;5.302;2024-02-14T07:19:59;75.50;;;34.42;;
43998;SDS011;51319;52.162;5.302;2024-02-14T07:22:26;70.30;;;32.22;;
43998;SDS011;51319;52.162;5.302;2024-02-14T07:24:53;76.10;;;35.42;;
43998;SDS011;51319;52.162;5.302;2024-02-14T07:27:20;93.88;;;36.47;;
43998;SDS011;51319;52.162;5.302;2024-02-14T07:29:48;75.72;;;32.70;;
43998;SDS011;51319;52.162;5.302;2024-02-14T07:32:15;70.78;;;31.02;;
43998;SDS011;51319;52.162;5.302;2024-02-14T07:34:43;64.97;;;31.20;;
43998;SDS011;51319;52.162;5.302;2024-02-14T07:37:10;62.58;;;31.02;;
43998;SDS011;51319;52.162;5.302;2024-02-14T07:39:37;75.57;;;32.83;;
43998;SDS011;51319;52.162;5.302;2024-02-14T07:42:04;63.72;;;28.90;;
43998;SDS011;51319;52.162;5.302;2024-02-14T07:44:32;69.55;;;31.33;;
43998;SDS011;51319;52.162;5.302;2024-02-14T07:46:59;68.10;;;32.85;;
43998;SDS011;51319;52.162;5.302;2024-02-14T07:49:30;66.68;;;32.75;;
43998;SDS011;51319;52.162;5.302;2024-02-14T07:51:57;71.70;;;32.95;;
43998;SDS011;51319;52.162;5.302;2024-02-14T07:54:24;60.45;;;30.35;;
43998;SDS011;51319;52.162;5.302;2024-02-14T07:56:51;75.80;;;33.08;;
43998;SDS011;51319;52.162;5.302;2024-02-14T07:59:18;74.78;;;32.35;;
43998;SDS011;51319;52.162;5.302;2024-02-14T08:01:47;69.82;;;36.72;;
43998;SDS011;51319;52.162;5.302;2024-02-14T08:04:14;55.88;;;28.88;;
43998;SDS011;51319;52.162;5.302;2024-02-14T08:06:44;62.15;;;27.42;;
43998;SDS011;51319;52.162;5.302;2024-02-14T08:09:12;57.80;;;29.25;;
43998;SDS011;51319;52.162;5.302;2024-02-14T08:11:40;64.38;;;32.67;;
43998;SDS011;51319;52.162;5.302;2024-02-14T08:14:07;43.50;;;20.58;;
43998;SDS011;51319;52.162;5.302;2024-02-14T08:16:34;69.82;;;33.42;;
43998;SDS011;51319;52.162;5.302;2024-02-14T08:19:02;55.65;;;27.27;;
43998;SDS011;51319;52.162;5.302;2024-02-14T08:21:30;62.13;;;29.52;;
43998;SDS011;51319;52.162;5.302;2024-02-14T08:23:58;57.00;;;30.27;;
43998;SDS011;51319;52.162;5.302;2024-02-14T08:26:27;53.20;;;29.13;;
43998;SDS011;51319;52.162;5.302;2024-02-14T08:28:55;58.78;;;28.88;;
43998;SDS011;51319;52.162;5.302;2024-02-14T08:31:22;53.72;;;25.73;;
43998;SDS011;51319;52.162;5.302;2024-02-14T08:33:50;51.22;;;27.33;;
43998;SDS011;51319;52.162;5.302;2024-02-14T08:36:17;53.53;;;28.67;;
43998;SDS011;51319;52.162;5.302;2024-02-14T08:38:46;59.78;;;31.13;;
43998;SDS011;51319;52.162;5.302;2024-02-14T08:41:14;64.93;;;31.20;;
43998;SDS011;51319;52.162;5.302;2024-02-14T08:43:41;66.35;;;34.53;;
43998;SDS011;51319;52.162;5.302;2024-02-14T08:46:12;42.15;;;25.08;;
43998;SDS011;51319;52.162;5.302;2024-02-14T08:48:40;44.88;;;24.35;;
43998;SDS011;51319;52.162;5.302;2024-02-14T08:51:15;53.55;;;24.40;;
43998;SDS011;51319;52.162;5.302;2024-02-14T08:53:43;48.75;;;25.55;;
43998;SDS011;51319;52.162;5.302;2024-02-14T08:56:12;46.42;;;25.90;;
43998;SDS011;51319;52.162;5.302;2024-02-14T08:58:40;47.15;;;24.20;;
43998;SDS011;51319;52.162;5.302;2024-02-14T09:01:08;44.22;;;25.05;;
43998;SDS011;51319;52.162;5.302;2024-02-14T09:03:44;39.47;;;20.90;;
43998;SDS011;51319;52.162;5.302;2024-02-14T09:06:16;49.10;;;25.40;;
43998;SDS011;51319;52.162;5.302;2024-02-14T09:08:45;47.58;;;24.88;;
43998;SDS011;51319;52.162;5.302;2024-02-14T09:11:13;51.53;;;23.90;;
43998;SDS011;51319;52.162;5.302;2024-02-14T09:13:40;37.80;;;22.77;;
43998;SDS011;51319;52.162;5.302;2024-02-14T09:16:10;50.35;;;25.48;;
43998;SDS011;51319;52.162;5.302;2024-02-14T09:18:38;50.00;;;25.38;;
43998;SDS011;51319;52.162;5.302;2024-02-14T09:21:05;45.65;;;25.50;;
43998;SDS011;51319;52.162;5.302;2024-02-14T09:23:33;52.30;;;26.75;;
43998;SDS011;51319;52.162;5.302;2024-02-14T09:26:01;48.42;;;26.67;;
43998;SDS011;51319;52.162;5.302;2024-02-14T09:28:29;48.92;;;25.27;;
43998;SDS011;51319;52.162;5.302;2024-02-14T09:30:56;47.38;;;24.05;;
43998;SDS011;51319;52.162;5.302;2024-02-14T09:33:23;46.10;;;24.02;;
43998;SDS011;51319;52.162;5.302;2024-02-14T09:35:51;48.70;;;22.67;;
43998;SDS011;51319;52.162;5.302;2024-02-14T09:38:19;43.58;;;23.75;;
43998;SDS011;51319;52.162;5.302;2024-02-14T09:40:46;43.72;;;23.30;;
43998;SDS011;51319;52.162;5.302;2024-02-14T09:43:26;36.75;;;21.58;;
43998;SDS011;51319;52.162;5.302;2024-02-14T09:46:01;37.88;;;21.60;;
43998;SDS011;51319;52.162;5.302;2024-02-14T09:48:33;54.10;;;28.13;;
43998;SDS011;51319;52.162;5.302;2024-02-14T09:51:02;49.45;;;27.10;;
43998;SDS011;51319;52.162;5.302;2024-02-14T09:53:29;42.25;;;24.88;;
43998;SDS011;51319;52.162;5.302;2024-02-14T09:55:58;62.13;;;32.03;;
43998;SDS011;51319;52.162;5.302;2024-02-14T09:58:28;66.45;;;34.22;;
43998;SDS011;51319;52.162;5.302;2024-02-14T10:00:58;50.10;;;27.15;;
43998;SDS011;51319;52.162;5.302;2024-02-14T10:03:26;50.10;;;26.85;;
43998;SDS011;51319;52.162;5.302;2024-02-14T10:05:53;47.88;;;26.77;;
43998;SDS011;51319;52.162;5.302;2024-02-14T10:08:22;49.22;;;27.65;;
43998;SDS011;51319;52.162;5.302;2024-02-14T10:10:49;57.85;;;31.70;;
43998;SDS011;51319;52.162;5.302;2024-02-14T10:13:20;53.67;;;30.53;;
43998;SDS011;51319;52.162;5.302;2024-02-14T10:15:48;53.80;;;29.73;;
43998;SDS011;51319;52.162;5.302;2024-02-14T10:18:16;52.05;;;31.52;;
43998;SDS011;51319;52.162;5.302;2024-02-14T10:20:56;55.58;;;29.30;;
43998;SDS011;51319;52.162;5.302;2024-02-14T10:23:23;50.33;;;28.73;;
43998;SDS011;51319;52.162;5.302;2024-02-14T10:25:52;48.35;;;27.95;;
43998;SDS011;51319;52.162;5.302;2024-02-14T10:28:22;41.42;;;25.25;;
43998;SDS011;51319;52.162;5.302;2024-02-14T10:31:01;37.20;;;21.88;;
43998;SDS011;51319;52.162;5.302;2024-02-14T10:33:31;38.13;;;22.85;;
43998;SDS011;51319;52.162;5.302;2024-02-14T10:35:59;42.65;;;24.10;;
43998;SDS011;51319;52.162;5.302;2024-02-14T10:38:31;44.03;;;25.92;;
43998;SDS011;51319;52.162;5.302;2024-02-14T10:41:02;33.97;;;21.85;;
43998;SDS011;51319;52.162;5.302;2024-02-14T10:43:32;37.05;;;21.73;;
43998;SDS011;51319;52.162;5.302;2024-02-14T10:46:00;39.05;;;21.90;;
43998;SDS011;51319;52.162;5.302;2024-02-14T10:48:34;34.42;;;21.15;;
43998;SDS011;51319;52.162;5.302;2024-02-14T10:51:05;34.88;;;21.20;;
43998;SDS011;51319;52.162;5.302;2024-02-14T10:53:34;33.60;;;20.10;;
43998;SDS011;51319;52.162;5.302;2024-02-14T10:56:05;27.55;;;19.08;;
43998;SDS011;51319;52.162;5.302;2024-02-14T10:58:32;32.38;;;18.67;;
43998;SDS011;51319;52.162;5.302;2024-02-14T11:01:01;36.20;;;20.13;;
43998;SDS011;51319;52.162;5.302;2024-02-14T11:03:29;32.00;;;19.52;;
43998;SDS011;51319;52.162;5.302;2024-02-14T11:06:00;32.08;;;20.33;;
43998;SDS011;51319;52.162;5.302;2024-02-14T11:08:31;29.77;;;18.45;;
43998;SDS011;51319;52.162;5.302;2024-02-14T11:11:00;30.92;;;19.65;;
43998;SDS011;51319;52.162;5.302;2024-02-14T11:13:30;31.98;;;19.70;;
43998;SDS011;51319;52.162;5.302;2024-02-14T11:16:01;28.90;;;18.35;;
43998;SDS011;51319;52.162;5.302;2024-02-14T11:18:31;27.83;;;19.00;;
43998;SDS011;51319;52.162;5.302;2024-02-14T11:21:04;23.57;;;16.07;;
43998;SDS011;51319;52.162;5.302;2024-02-14T11:23:52;27.73;;;17.50;;
43998;SDS011;51319;52.162;5.302;2024-02-14T11:26:20;26.00;;;17.38;;
43998;SDS011;51319;52.162;5.302;2024-02-14T11:28:49;24.25;;;16.23;;
43998;SDS011;51319;52.162;5.302;2024-02-14T11:31:31;28.50;;;17.23;;
43998;SDS011;51319;52.162;5.302;2024-02-14T11:34:07;26.17;;;16.35;;
43998;SDS011;51319;52.162;5.302;2024-02-14T11:36:35;21.48;;;13.93;;
43998;SDS011;51319;52.162;5.302;2024-02-14T11:39:03;28.23;;;17.23;;
43998;SDS011;51319;52.162;5.302;2024-02-14T11:41:34;19.17;;;13.73;;
43998;SDS011;51319;52.162;5.302;2024-02-14T11:44:01;24.92;;;15.60;;
43998;SDS011;51319;52.162;5.302;2024-02-14T11:46:35;25.33;;;16.42;;
43998;SDS011;51319;52.162;5.302;2024-02-14T11:49:04;24.63;;;15.55;;
43998;SDS011;51319;52.162;5.302;2024-02-14T11:51:33;29.65;;;16.70;;
43998;SDS011;51319;52.162;5.302;2024-02-14T11:54:02;23.67;;;15.70;;
43998;SDS011;51319;52.162;5.302;2024-02-14T11:56:33;30.65;;;17.02;;
43998;SDS011;51319;52.162;5.302;2024-02-14T11:59:03;29.15;;;17.25;;
43998;SDS011;51319;52.162;5.302;2024-02-14T12:01:31;23.77;;;15.95;;
43998;SDS011;51319;52.162;5.302;2024-02-14T12:04:01;31.83;;;17.20;;
43998;SDS011;51319;52.162;5.302;2024-02-14T12:06:31;24.13;;;15.25;;
43998;SDS011;51319;52.162;5.302;2024-02-14T12:09:02;27.95;;;18.00;;
43998;SDS011;51319;52.162;5.302;2024-02-14T12:11:32;28.08;;;18.25;;
43998;SDS011;51319;52.162;5.302;2024-02-14T12:14:01;27.33;;;17.13;;
43998;SDS011;51319;52.162;5.302;2024-02-14T12:16:29;33.63;;;18.33;;
43998;SDS011;51319;52.162;5.302;2024-02-14T12:19:05;29.63;;;19.05;;
43998;SDS011;51319;52.162;5.302;2024-02-14T12:21:37;35.00;;;17.40;;
43998;SDS011;51319;52.162;5.302;2024-02-14T12:24:09;28.40;;;17.80;;
43998;SDS011;51319;52.162;5.302;2024-02-14T12:29:05;26.23;;;16.77;;
43998;SDS011;51319;52.162;5.302;2024-02-14T12:31:36;27.95;;;16.65;;
43998;SDS011;51319;52.162;5.302;2024-02-14T12:34:04;29.50;;;16.73;;
43998;SDS011;51319;52.162;5.302;2024-02-14T12:36:32;27.75;;;15.05;;
43998;SDS011;51319;52.162;5.302;2024-02-14T12:39:00;25.92;;;15.30;;
43998;SDS011;51319;52.162;5.302;2024-02-14T12:41:31;23.65;;;14.75;;
43998;SDS011;51319;52.162;5.302;2024-02-14T12:43:59;25.00;;;14.65;;
43998;SDS011;51319;52.162;5.302;2024-02-14T12:46:27;21.92;;;12.98;;
43998;SDS011;51319;52.162;5.302;2024-02-14T12:48:54;24.65;;;12.10;;
43998;SDS011;51319;52.162;5.302;2024-02-14T12:51:21;18.15;;;12.25;;
43998;SDS011;51319;52.162;5.302;2024-02-14T12:53:48;20.23;;;11.65;;
43998;SDS011;51319;52.162;5.302;2024-02-14T12:56:15;27.70;;;12.20;;
43998;SDS011;51319;52.162;5.302;2024-02-14T12:58:43;19.98;;;12.00;;
43998;SDS011;51319;52.162;5.302;2024-02-14T13:01:10;18.60;;;11.10;;
43998;SDS011;51319;52.162;5.302;2024-02-14T13:03:38;12.18;;;9.10;;
43998;SDS011;51319;52.162;5.302;2024-02-14T13:06:05;14.68;;;9.98;;
43998;SDS011;51319;52.162;5.302;2024-02-14T13:08:32;16.88;;;10.45;;
43998;SDS011;51319;52.162;5.302;2024-02-14T13:11:00;19.27;;;12.40;;
43998;SDS011;51319;52.162;5.302;2024-02-14T13:13:26;18.77;;;13.20;;
43998;SDS011;51319;52.162;5.302;2024-02-14T13:15:56;20.45;;;12.52;;
43998;SDS011;51319;52.162;5.302;2024-02-14T13:18:23;24.10;;;14.05;;
43998;SDS011;51319;52.162;5.302;2024-02-14T13:20:51;25.13;;;16.05;;
43998;SDS011;51319;52.162;5.302;2024-02-14T13:23:26;31.23;;;18.40;;
43998;SDS011;51319;52.162;5.302;2024-02-14T13:25:53;23.55;;;15.57;;
43998;SDS011;51319;52.162;5.302;2024-02-14T13:28:20;26.40;;;17.38;;
43998;SDS011;51319;52.162;5.302;2024-02-14T13:30:47;25.58;;;16.90;;
43998;SDS011;51319;52.162;5.302;2024-02-14T13:33:14;23.85;;;15.70;;
43998;SDS011;51319;52.162;5.302;2024-02-14T13:35:41;22.13;;;14.70;;
43998;SDS011;51319;52.162;5.302;2024-02-14T13:38:08;22.40;;;15.57;;
43998;SDS011;51319;52.162;5.302;2024-02-14T13:40:36;39.95;;;22.10;;
43998;SDS011;51319;52.162;5.302;2024-02-14T13:43:03;19.77;;;13.88;;
43998;SDS011;51319;52.162;5.302;2024-02-14T13:45:39;21.63;;;14.13;;
43998;SDS011;51319;52.162;5.302;2024-02-14T13:48:10;22.88;;;16.55;;
43998;SDS011;51319;52.162;5.302;2024-02-14T13:50:39;60.65;;;27.73;;
43998;SDS011;51319;52.162;5.302;2024-02-14T13:53:07;30.17;;;19.45;;
43998;SDS011;51319;52.162;5.302;2024-02-14T13:55:34;22.95;;;14.93;;
43998;SDS011;51319;52.162;5.302;2024-02-14T13:58:01;31.27;;;21.15;;
43998;SDS011;51319;52.162;5.302;2024-02-14T14:00:28;25.95;;;16.80;;
43998;SDS011;51319;52.162;5.302;2024-02-14T14:02:55;22.77;;;15.45;;
43998;SDS011;51319;52.162;5.302;2024-02-14T14:05:22;25.48;;;15.45;;
43998;SDS011;51319;52.162;5.302;2024-02-14T14:07:50;45.20;;;27.65;;
43998;SDS011;51319;52.162;5.302;2024-02-14T14:10:24;19.98;;;12.65;;
43998;SDS011;51319;52.162;5.302;2024-02-14T14:12:53;19.58;;;12.07;;
43998;SDS011;51319;52.162;5.302;2024-02-14T14:15:21;20.45;;;12.20;;
43998;SDS011;51319;52.162;5.302;2024-02-14T14:17:49;23.42;;;11.55;;
43998;SDS011;51319;52.162;5.302;2024-02-14T14:20:17;17.13;;;11.73;;
43998;SDS011;51319;52.162;5.302;2024-02-14T14:22:46;16.10;;;10.68;;
43998;SDS011;51319;52.162;5.302;2024-02-14T14:25:13;16.88;;;11.90;;
43998;SDS011;51319;52.162;5.302;2024-02-14T14:27:40;19.13;;;11.88;;
43998;SDS011;51319;52.162;5.302;2024-02-14T14:30:09;18.60;;;12.75;;